createdAt,value
2019-02-18T00:03:35.444Z,36.20
2019-02-18T00:08:37.854Z,36.30
2019-02-18T00:13:39.220Z,36.30
2019-02-18T00:18:40.559Z,36.40
2019-02-18T00:23:41.964Z,36.40
2019-02-18T00:28:43.390Z,36.30
2019-02-18T00:33:44.802Z,36.30
2019-02-18T00:38:46.220Z,36.30
2019-02-18T00:43:47.616Z,36.40
2019-02-18T00:48:48.983Z,36.30
2019-02-18T00:53:51.367Z,36.40
2019-02-18T00:58:52.698Z,36.30
2019-02-18T01:03:54.087Z,36.20
2019-02-18T01:08:55.448Z,36.30
2019-02-18T01:13:56.826Z,35.90
2019-02-18T01:18:58.187Z,36.10
2019-02-18T01:23:59.538Z,36.10
2019-02-18T01:29:00.910Z,36.10
2019-02-18T01:34:04.326Z,36.20
2019-02-18T01:39:05.664Z,36.10
2019-02-18T01:44:07.065Z,36.20
2019-02-18T01:49:08.424Z,36.20
2019-02-18T01:54:09.883Z,36.20
2019-02-18T01:59:11.241Z,36.30
2019-02-18T02:04:13.643Z,36.30
2019-02-18T02:09:16.029Z,36.40
2019-02-18T02:14:17.457Z,36.40
2019-02-18T02:19:18.949Z,36.30
2019-02-18T02:24:20.324Z,36.20
2019-02-18T02:29:21.690Z,36.30
2019-02-18T02:34:23.038Z,36.30
2019-02-18T02:39:24.406Z,36.40
2019-02-18T02:44:26.828Z,36.40
2019-02-18T02:49:28.168Z,36.60
2019-02-18T02:54:29.535Z,36.40
2019-02-18T02:59:30.870Z,36.40
2019-02-18T03:04:32.335Z,36.40
2019-02-18T03:09:33.721Z,36.50
2019-02-18T03:14:35.086Z,36.50
2019-02-18T03:19:36.426Z,36.40
2019-02-18T03:25:00.306Z,36.40
2019-02-18T03:30:16.161Z,36.30
2019-02-18T03:35:17.590Z,36.20
2019-02-18T03:40:18.975Z,36.30
2019-02-18T03:45:20.337Z,36.40
2019-02-18T03:50:21.728Z,36.20
2019-02-18T03:55:23.672Z,36.30
2019-02-18T04:00:25.021Z,36.30
2019-02-18T04:05:26.400Z,36.70
2019-02-18T04:10:27.793Z,36.30
2019-02-18T04:15:29.213Z,36.40
2019-02-18T04:20:31.643Z,36.30
2019-02-18T04:25:33.072Z,36.30
2019-02-18T04:30:34.464Z,36.30
2019-02-18T04:35:35.794Z,36.10
2019-02-18T04:40:38.250Z,36.20
2019-02-18T04:45:39.651Z,36.20
2019-02-18T04:50:41.071Z,36.20
2019-02-18T04:55:42.519Z,36.20
2019-02-18T05:00:43.947Z,36.20
2019-02-18T05:05:45.336Z,36.10
2019-02-18T05:10:46.666Z,36.10
2019-02-18T05:15:48.086Z,36.40
2019-02-18T05:20:49.508Z,36.20
2019-02-18T05:25:50.919Z,36.20
2019-02-18T05:30:52.359Z,36.20
2019-02-18T05:35:55.872Z,36.20
2019-02-18T05:40:57.037Z,36.20
2019-02-18T05:45:58.373Z,36.20
2019-02-18T05:50:59.782Z,36.20
2019-02-18T05:56:01.297Z,36.20
2019-02-18T06:01:02.819Z,36.20
2019-02-18T06:06:04.234Z,36.30
2019-02-18T06:11:05.651Z,36.20
2019-02-18T06:16:07.069Z,36.20
2019-02-18T06:21:08.460Z,36.10
2019-02-18T06:26:09.837Z,36.40
2019-02-18T06:31:11.401Z,36.40
2019-02-18T06:36:12.733Z,36.30
2019-02-18T06:41:14.132Z,36.10
2019-02-18T06:46:26.302Z,36.30
2019-02-18T06:51:28.847Z,36.40
2019-02-18T06:56:32.271Z,36.10
2019-02-18T07:01:36.645Z,36.30
2019-02-18T07:06:39.946Z,36.40
2019-02-18T07:11:52.018Z,36.40
2019-02-18T07:16:53.451Z,36.40
2019-02-18T07:21:54.836Z,36.30
2019-02-18T07:26:56.185Z,36.40
2019-02-18T07:31:57.711Z,36.30
2019-02-18T07:36:59.115Z,36.30
2019-02-18T07:42:02.544Z,36.00
2019-02-18T07:47:03.980Z,36.20
2019-02-18T07:52:05.371Z,36.50
2019-02-18T07:57:06.841Z,36.60
2019-02-18T08:02:08.212Z,36.80
2019-02-18T08:07:09.636Z,36.50
2019-02-18T08:12:11.044Z,36.60
2019-02-18T08:17:12.471Z,36.60
2019-02-18T08:22:13.880Z,36.70
2019-02-18T08:27:15.304Z,36.70
2019-02-18T08:32:16.683Z,36.70
2019-02-18T08:37:18.068Z,36.70
2019-02-18T08:42:19.644Z,36.70
2019-02-18T08:47:21.109Z,36.50
2019-02-18T08:52:22.533Z,36.60
2019-02-18T08:57:24.268Z,36.60
2019-02-18T09:02:25.967Z,36.10
2019-02-18T09:07:28.803Z,36.10
2019-02-18T09:12:30.131Z,35.80
2019-02-18T09:17:31.532Z,35.50
2019-02-18T09:22:38.012Z,35.60
2019-02-18T09:27:39.357Z,35.60
2019-02-18T09:32:40.771Z,35.20
2019-02-18T09:37:42.192Z,35.00
2019-02-18T09:42:43.585Z,35.00
2019-02-18T09:47:45.020Z,34.50
2019-02-18T09:52:47.412Z,34.10
2019-02-18T09:57:48.779Z,34.50
2019-02-18T10:02:50.117Z,34.10
2019-02-18T10:07:51.462Z,33.50
2019-02-18T10:12:52.870Z,33.90
2019-02-18T10:17:54.284Z,34.60
2019-02-18T10:22:56.014Z,34.60
2019-02-18T10:27:57.403Z,35.10
2019-02-18T10:32:58.827Z,34.70
2019-02-18T10:38:00.250Z,35.30
2019-02-18T10:43:01.688Z,35.40
2019-02-18T10:48:03.279Z,35.30
2019-02-18T10:53:04.738Z,35.20
2019-02-18T10:58:06.200Z,35.30
2019-02-18T11:03:09.203Z,34.90
2019-02-18T11:08:11.022Z,35.30
2019-02-18T11:13:12.447Z,35.20
2019-02-18T11:18:13.860Z,34.80
2019-02-18T11:23:15.268Z,35.80
2019-02-18T11:28:17.139Z,35.80
2019-02-18T11:33:19.510Z,35.60
2019-02-18T11:38:20.847Z,35.80
2019-02-18T11:43:22.355Z,35.80
2019-02-18T11:48:23.796Z,35.80
2019-02-18T11:53:25.447Z,36.10
2019-02-18T11:58:26.848Z,36.10
2019-02-18T12:03:28.336Z,36.30
2019-02-18T12:08:29.800Z,36.10
2019-02-18T12:13:32.338Z,36.20
2019-02-18T12:18:33.733Z,36.30
2019-02-18T12:23:35.096Z,36.20
2019-02-18T12:28:36.544Z,36.30
2019-02-18T12:33:38.238Z,36.40
2019-02-18T12:38:41.056Z,36.50
2019-02-18T12:43:42.802Z,36.50
2019-02-18T12:48:44.155Z,36.60
2019-02-18T12:53:46.468Z,36.50
2019-02-18T12:58:54.687Z,36.70
2019-02-18T13:03:51.450Z,36.70
2019-02-18T13:08:52.895Z,36.80
2019-02-18T13:13:54.246Z,36.60
2019-02-18T13:18:55.661Z,36.90
2019-02-18T13:23:57.166Z,36.70
2019-02-18T13:28:58.714Z,36.80
2019-02-18T13:34:00.111Z,36.90
2019-02-18T13:39:01.525Z,36.90
2019-02-18T13:44:03.263Z,36.80
2019-02-18T13:49:04.619Z,37.00
2019-02-18T13:54:06.016Z,37.10
2019-02-18T13:59:08.808Z,37.00
2019-02-18T14:04:10.362Z,37.10
2019-02-18T14:09:11.844Z,37.00
2019-02-18T14:14:13.201Z,37.10
2019-02-18T14:19:14.694Z,37.10
2019-02-18T14:24:16.105Z,37.20
2019-02-18T14:29:18.524Z,37.20
2019-02-18T14:34:19.999Z,37.80
2019-02-18T14:39:23.655Z,37.30
2019-02-18T14:44:25.258Z,37.20
2019-02-18T14:49:26.639Z,37.20
2019-02-18T14:54:28.214Z,37.10
2019-02-18T14:59:29.778Z,37.10
2019-02-18T15:04:31.646Z,37.70
2019-02-18T15:09:32.988Z,37.10
2019-02-18T15:14:34.360Z,37.20
2019-02-18T15:19:35.733Z,37.20
2019-02-18T15:24:37.199Z,37.40
2019-02-18T15:29:38.555Z,37.30
2019-02-18T15:34:39.940Z,37.30
2019-02-18T15:39:41.367Z,37.40
2019-02-18T15:44:43.349Z,37.10
2019-02-18T15:49:44.820Z,36.70
2019-02-18T15:54:46.202Z,36.90
2019-02-18T15:59:47.650Z,37.00
2019-02-18T16:04:49.070Z,37.00
2019-02-18T16:09:50.492Z,37.30
2019-02-18T16:14:51.887Z,37.20
2019-02-18T16:19:53.326Z,37.30
2019-02-18T16:24:55.218Z,37.30
2019-02-18T16:29:56.656Z,37.00
2019-02-18T16:34:58.097Z,37.00
2019-02-18T16:39:59.811Z,36.90
2019-02-18T16:45:01.210Z,37.00
2019-02-18T16:50:04.760Z,37.20
2019-02-18T16:55:12.424Z,37.20
2019-02-18T17:00:31.754Z,37.20
2019-02-18T17:05:33.470Z,37.20
2019-02-18T17:10:34.856Z,37.20
2019-02-18T17:15:36.285Z,36.70
2019-02-18T17:20:37.679Z,36.80
2019-02-18T17:25:39.108Z,36.80
2019-02-18T17:30:40.501Z,36.40
2019-02-18T17:35:42.874Z,36.50
2019-02-18T17:40:44.558Z,36.60
2019-02-18T17:45:45.888Z,36.40
2019-02-18T17:50:47.287Z,36.60
2019-02-18T17:55:48.668Z,36.70
2019-02-18T18:00:52.007Z,36.80
2019-02-18T18:05:53.425Z,36.90
2019-02-18T18:10:55.813Z,36.80
2019-02-18T18:15:57.543Z,36.90
2019-02-18T18:20:58.961Z,36.80
2019-02-18T18:26:00.486Z,37.10
2019-02-18T18:31:01.889Z,37.10
2019-02-18T18:36:03.327Z,37.00
2019-02-18T18:41:04.805Z,37.00
2019-02-18T18:46:06.630Z,37.20
2019-02-18T18:51:09.118Z,37.20
2019-02-18T18:56:10.631Z,37.10
2019-02-18T19:01:12.023Z,37.20
2019-02-18T19:06:13.453Z,37.50
2019-02-18T19:11:14.860Z,37.30
2019-02-18T19:16:16.290Z,37.10
2019-02-18T19:21:17.691Z,37.30
2019-02-18T19:26:19.136Z,37.30
2019-02-18T19:31:20.575Z,37.30
2019-02-18T19:36:21.981Z,37.30
2019-02-18T19:41:23.419Z,37.20
2019-02-18T19:46:24.826Z,37.20
2019-02-18T19:51:27.079Z,37.20
2019-02-18T19:56:30.586Z,37.20
2019-02-18T20:01:32.036Z,37.30
2019-02-18T20:06:33.528Z,37.50
2019-02-18T20:11:34.970Z,37.40
2019-02-18T20:16:37.596Z,37.50
2019-02-18T20:21:39.050Z,37.50
2019-02-18T20:26:40.450Z,37.50
2019-02-18T20:31:41.906Z,37.30
2019-02-18T20:36:43.323Z,37.60
2019-02-18T20:41:45.065Z,37.60
2019-02-18T20:46:46.464Z,37.90
2019-02-18T20:51:47.858Z,37.70
2019-02-18T20:56:49.428Z,37.80
2019-02-18T21:01:51.814Z,37.50
2019-02-18T21:06:53.255Z,37.90
2019-02-18T21:11:55.700Z,37.80
2019-02-18T21:16:57.212Z,37.90
2019-02-18T21:21:58.892Z,37.70
2019-02-18T21:27:00.338Z,37.90
2019-02-18T21:32:01.707Z,38.00
2019-02-18T21:37:03.187Z,37.80
2019-02-18T21:42:04.547Z,37.80
2019-02-18T21:47:06.461Z,37.80
2019-02-18T21:52:07.989Z,37.80
2019-02-18T21:57:09.365Z,37.90
2019-02-18T22:02:10.747Z,37.90
2019-02-18T22:07:12.199Z,38.00
2019-02-18T22:12:14.015Z,38.00
2019-02-18T22:17:15.454Z,38.20
2019-02-18T22:22:16.887Z,38.00
2019-02-18T22:27:18.279Z,38.20
2019-02-18T22:32:19.715Z,38.10
2019-02-18T22:37:21.957Z,38.60
2019-02-18T22:42:23.799Z,38.10
2019-02-18T22:47:26.159Z,38.00
2019-02-18T22:52:27.568Z,38.10
2019-02-18T22:57:28.995Z,38.00
2019-02-18T23:02:30.481Z,37.90
2019-02-18T23:07:31.929Z,38.10
2019-02-18T23:12:33.312Z,38.10
2019-02-18T23:17:34.744Z,38.10
2019-02-18T23:22:36.165Z,38.30
2019-02-18T23:27:37.590Z,38.10
2019-02-18T23:32:38.970Z,38.20
2019-02-18T23:37:40.417Z,38.20
2019-02-18T23:42:41.832Z,38.30
2019-02-18T23:47:43.292Z,38.30
2019-02-18T23:52:44.959Z,38.30
2019-02-18T23:57:46.376Z,38.30
